»·PEaware :: AAL822 KTUS-KPSP

AAL822 :: KTUS-KPSP

FLIGHT INFORMATION

Flight Status: Arrived
Operator:
American Airlines
More flights by this operator :: More flights under this callsign
Pilot: Max W. (2591)
Aircraft: AIRBUS A320
(A320)
More flights by this aircraft type
Origin: KTUS Tucson Intl
United States
Destination: KPSP Palm Springs Intl
United States
More flights between these airports :: More routes between these airports
Route: WIDKT3 GBN BLH CLOWD1
File this flight plan on PilotEdge
Remarks:
Altitude:
(Current/Filed)
30,000ft
Speed:
(Current/Filed)
450kts
Departed: 08-Aug-18 01:42 PM
Arrived: 08-Aug-18 02:45 PM
Distance/Time
Traveled:
298nm/1:02
Distance/Time
To Go:
Arrived

Flight Plot

Page will automatically refresh every two minutes.

Flight plan parsing failed; only flown route is shown


Map Options




Map Legend


Flown Route
Filed Route
Departure Airport
Arrival Airport
Navaid (VOR, NDB)
Fix

Horizontal Profiles

Position Reports

Time Latitude Longitude Heading Altitude Ground
Speed
08-Aug-18 13:25 32.118620 -110.936790 355 2600ft 0kts
08-Aug-18 13:26 32.118620 -110.936790 355 2600ft 0kts
08-Aug-18 13:27 32.118620 -110.936790 355 2600ft 0kts
08-Aug-18 13:28 32.118620 -110.936790 355 2600ft 0kts
08-Aug-18 13:29 32.118620 -110.936790 355 2600ft 0kts
08-Aug-18 13:30 32.118620 -110.936790 355 2600ft 0kts
08-Aug-18 13:31 32.118620 -110.936790 355 2600ft 0kts
08-Aug-18 13:32 32.118401 -110.936757 342 2600ft 2kts
08-Aug-18 13:33 32.118049 -110.936490 312 2600ft 0kts
08-Aug-18 13:34 32.118103 -110.936650 277 2600ft 7kts
08-Aug-18 13:35 32.115067 -110.935570 138 2600ft 25kts
08-Aug-18 13:36 32.108908 -110.928447 133 2600ft 33kts
08-Aug-18 13:37 32.103204 -110.922238 211 2600ft 10kts
08-Aug-18 13:38 32.103104 -110.922317 217 2600ft 0kts
08-Aug-18 13:39 32.103104 -110.922317 217 2600ft 0kts
08-Aug-18 13:40 32.103104 -110.922317 217 2600ft 0kts
08-Aug-18 13:41 32.103104 -110.922317 217 2600ft 0kts
08-Aug-18 13:42 32.103104 -110.922317 217 2600ft 0kts
08-Aug-18 13:43 32.106675 -110.928345 313 2600ft 111kts
08-Aug-18 13:44 32.138911 -110.965493 312 4909ft 176kts
08-Aug-18 13:45 32.180712 -111.015215 313 6044ft 256kts
08-Aug-18 13:46 32.227661 -111.087791 278 8085ft 297kts
08-Aug-18 13:47 32.241996 -111.186545 277 10735ft 315kts
08-Aug-18 13:48 32.254699 -111.274663 279 12996ft 327kts
08-Aug-18 13:49 32.270150 -111.382206 278 15551ft 338kts
08-Aug-18 13:50 32.296788 -111.488334 303 18084ft 342kts
08-Aug-18 13:51 32.348849 -111.580692 301 20533ft 341kts
08-Aug-18 13:52 32.396112 -111.664578 301 22307ft 348kts
08-Aug-18 13:53 32.449614 -111.759829 297 24144ft 354kts
08-Aug-18 13:54 32.504397 -111.857816 301 25814ft 361kts
08-Aug-18 13:55 32.560180 -111.957475 300 27391ft 367kts
08-Aug-18 13:56 32.616558 -112.059028 301 28803ft 372kts
08-Aug-18 13:57 32.673916 -112.161760 300 30006ft 375kts
08-Aug-18 13:58 32.732535 -112.267506 300 30000ft 397kts
08-Aug-18 13:59 32.793083 -112.377466 300 29984ft 398kts
08-Aug-18 14:00 32.853751 -112.487226 300 29985ft 397kts
08-Aug-18 14:01 32.914027 -112.597436 302 29988ft 399kts
08-Aug-18 14:02 32.968101 -112.710192 287 29986ft 393kts
08-Aug-18 14:03 33.006345 -112.832071 287 29987ft 393kts
08-Aug-18 14:04 33.043825 -112.951438 289 29985ft 373kts
08-Aug-18 14:05 33.080210 -113.067492 289 29988ft 377kts
08-Aug-18 14:06 33.117459 -113.186849 290 29983ft 392kts
08-Aug-18 14:07 33.164165 -113.297134 317 29995ft 379kts
08-Aug-18 14:08 33.252805 -113.366055 325 29995ft 382kts
08-Aug-18 14:09 33.334632 -113.442080 293 29970ft 376kts
08-Aug-18 14:10 33.360234 -113.559900 283 29964ft 359kts
08-Aug-18 14:11 33.381352 -113.674581 272 29907ft 364kts
08-Aug-18 14:12 33.406944 -113.791036 282 29939ft 363kts
08-Aug-18 14:13 33.430293 -113.908314 283 29933ft 363kts
08-Aug-18 14:14 33.453443 -114.025912 283 29931ft 362kts
08-Aug-18 14:15 33.476385 -114.143059 282 29924ft 362kts
08-Aug-18 14:16 33.498544 -114.256258 283 29943ft 342kts
08-Aug-18 14:17 33.520108 -114.367593 283 29948ft 344kts
08-Aug-18 14:18 33.541884 -114.478751 283 29650ft 340kts
08-Aug-18 14:19 33.562939 -114.587819 284 27934ft 333kts
08-Aug-18 14:20 33.583089 -114.693048 284 26309ft 326kts
08-Aug-18 14:21 33.606855 -114.794050 293 24772ft 317kts
08-Aug-18 14:22 33.638767 -114.891046 294 23067ft 311kts
08-Aug-18 14:23 33.670349 -114.986560 294 21436ft 308kts
08-Aug-18 14:24 33.700749 -115.082481 296 19536ft 311kts
08-Aug-18 14:25 33.733587 -115.177425 292 18022ft 307kts
08-Aug-18 14:26 33.763887 -115.271598 290 16757ft 295kts
08-Aug-18 14:27 33.792939 -115.361924 292 15436ft 289kts
08-Aug-18 14:28 33.821611 -115.451154 290 14108ft 283kts
08-Aug-18 14:29 33.850170 -115.538554 292 12808ft 279kts
08-Aug-18 14:30 33.877801 -115.624623 291 11550ft 274kts
08-Aug-18 14:31 33.904225 -115.706649 291 11000ft 264kts
08-Aug-18 14:32 33.912546 -115.790779 265 10999ft 259kts
08-Aug-18 14:33 33.906991 -115.871101 264 10999ft 259kts
08-Aug-18 14:34 33.891206 -115.949985 224 11002ft 242kts
08-Aug-18 14:35 33.842878 -116.003662 222 10185ft 233kts
08-Aug-18 14:36 33.796231 -116.055171 222 8480ft 216kts
08-Aug-18 14:37 33.752899 -116.102551 221 6909ft 208kts
08-Aug-18 14:38 33.726701 -116.162757 247 5392ft 203kts
08-Aug-18 14:39 33.710895 -116.226387 272 4018ft 200kts
08-Aug-18 14:40 33.716337 -116.291730 275 3016ft 191kts
08-Aug-18 14:41 33.720830 -116.351715 274 2148ft 162kts
08-Aug-18 14:42 33.734900 -116.401605 304 2018ft 159kts
08-Aug-18 14:43 33.760827 -116.445031 324 1832ft 162kts
08-Aug-18 14:44 33.795845 -116.477723 325 1059ft 159kts
08-Aug-18 14:45 33.829104 -116.507147 322 486ft 55kts
08-Aug-18 14:46 33.832792 -116.512206 189 486ft 0kts
08-Aug-18 14:47 33.832792 -116.512206 189 486ft 0kts
08-Aug-18 14:48 33.829920 -116.509989 143 486ft 24kts
08-Aug-18 14:49 33.825164 -116.505677 144 486ft 21kts
08-Aug-18 14:50 33.823120 -116.505732 274 486ft 0kts
08-Aug-18 14:51 33.823120 -116.505732 274 486ft 0kts

Navigation Log

Ident Type
Flight plan parsing failed, navigation log unavailable